createdAt,value
2018-10-06T00:01:56.035Z,11.83
2018-10-06T00:04:24.971Z,11.03
2018-10-06T00:06:53.805Z,11.03
2018-10-06T00:09:22.644Z,12.40
2018-10-06T00:11:51.970Z,12.77
2018-10-06T00:14:20.883Z,11.27
2018-10-06T00:16:49.733Z,12.77
2018-10-06T00:19:18.619Z,13.20
2018-10-06T00:21:47.432Z,12.20
2018-10-06T00:24:16.280Z,12.60
2018-10-06T00:26:45.151Z,12.80
2018-10-06T00:29:14.021Z,13.33
2018-10-06T00:31:46.729Z,13.20
2018-10-06T00:34:18.656Z,13.00
2018-10-06T00:36:47.522Z,14.10
2018-10-06T00:39:16.309Z,14.37
2018-10-06T00:41:45.129Z,14.20
2018-10-06T00:44:13.982Z,14.00
2018-10-06T00:46:42.763Z,13.23
2018-10-06T00:49:11.599Z,13.23
2018-10-06T00:51:40.451Z,12.43
2018-10-06T00:54:09.290Z,13.00
2018-10-06T00:56:38.101Z,19.83
2018-10-06T00:59:07.350Z,14.30
2018-10-06T01:01:36.258Z,13.57
2018-10-06T01:04:05.102Z,13.23
2018-10-06T01:06:35.438Z,12.83
2018-10-06T01:09:06.055Z,13.37
2018-10-06T01:11:34.988Z,14.30
2018-10-06T01:14:03.819Z,12.77
2018-10-06T01:16:32.729Z,13.00
2018-10-06T01:19:01.561Z,13.83
2018-10-06T01:21:30.518Z,11.83
2018-10-06T01:23:59.309Z,11.60
2018-10-06T01:26:28.354Z,12.67
2018-10-06T01:28:57.279Z,11.90
2018-10-06T01:31:26.240Z,11.40
2018-10-06T01:33:55.069Z,11.37
2018-10-06T01:36:24.171Z,12.10
2018-10-06T01:38:53.002Z,10.90
2018-10-06T01:41:22.193Z,11.17
2018-10-06T01:43:51.134Z,11.53
2018-10-06T01:46:19.990Z,10.63
2018-10-06T01:48:48.873Z,10.40
2018-10-06T01:51:17.684Z,11.27
2018-10-06T01:53:46.583Z,10.60
2018-10-06T01:56:15.408Z,10.47
2018-10-06T01:58:44.326Z,10.73
2018-10-06T02:01:13.154Z,11.43
2018-10-06T02:03:41.981Z,11.70
2018-10-06T02:06:11.161Z,10.87
2018-10-06T02:08:40.120Z,10.50
2018-10-06T02:11:08.888Z,11.43
2018-10-06T02:13:37.741Z,10.97
2018-10-06T02:16:06.655Z,11.40
2018-10-06T02:18:35.463Z,12.00
2018-10-06T02:21:04.435Z,11.10
2018-10-06T02:23:33.303Z,11.43
2018-10-06T02:26:02.166Z,11.67
2018-10-06T02:28:31.270Z,10.60
2018-10-06T02:31:00.072Z,10.93
2018-10-06T02:33:29.551Z,11.60
2018-10-06T02:35:58.480Z,11.23
2018-10-06T02:38:27.432Z,11.53
2018-10-06T02:40:56.306Z,11.73
2018-10-06T02:43:25.123Z,11.10
2018-10-06T02:45:53.964Z,10.83
2018-10-06T02:48:22.840Z,12.00
2018-10-06T02:50:51.824Z,11.03
2018-10-06T02:53:20.775Z,11.27
2018-10-06T02:55:49.752Z,11.33
2018-10-06T02:58:18.643Z,12.57
2018-10-06T03:00:48.109Z,11.30
2018-10-06T03:03:17.024Z,11.50
2018-10-06T03:05:45.837Z,10.97
2018-10-06T03:08:14.714Z,11.83
2018-10-06T03:10:43.649Z,11.53
2018-10-06T03:13:12.681Z,10.97
2018-10-06T03:15:41.652Z,10.60
2018-10-06T03:18:10.543Z,11.23
2018-10-06T03:20:39.422Z,11.33
2018-10-06T03:23:08.262Z,12.23
2018-10-06T03:25:37.161Z,11.10
2018-10-06T03:28:05.972Z,12.13
2018-10-06T03:30:34.810Z,10.37
2018-10-06T03:33:03.561Z,11.93
2018-10-06T03:35:32.318Z,11.07
2018-10-06T03:38:01.268Z,11.10
2018-10-06T03:40:30.178Z,10.77
2018-10-06T03:42:58.979Z,10.73
2018-10-06T03:45:27.769Z,11.17
2018-10-06T03:47:56.544Z,12.00
2018-10-06T03:50:25.345Z,11.67
2018-10-06T03:52:54.608Z,11.50
2018-10-06T03:55:23.612Z,11.83
2018-10-06T03:57:52.499Z,10.90
2018-10-06T04:00:21.340Z,11.33
2018-10-06T04:02:50.265Z,11.87
2018-10-06T04:05:19.062Z,11.70
2018-10-06T04:07:47.879Z,11.73
2018-10-06T04:10:16.736Z,10.77
2018-10-06T04:12:45.569Z,11.50
2018-10-06T04:15:14.530Z,11.30
2018-10-06T04:17:43.369Z,11.83
2018-10-06T04:20:12.193Z,12.33
2018-10-06T04:22:41.238Z,12.37
2018-10-06T04:25:10.035Z,11.77
2018-10-06T04:27:38.877Z,11.60
2018-10-06T04:30:08.883Z,11.47
2018-10-06T04:32:37.743Z,11.77
2018-10-06T04:35:06.682Z,12.30
2018-10-06T04:37:35.529Z,11.93
2018-10-06T04:40:04.420Z,12.13
2018-10-06T04:42:33.758Z,11.20
2018-10-06T04:45:02.721Z,11.60
2018-10-06T04:47:31.503Z,12.13
2018-10-06T04:50:00.412Z,11.50
2018-10-06T04:52:29.235Z,12.13
2018-10-06T04:54:58.059Z,11.13
2018-10-06T04:57:26.979Z,11.73
2018-10-06T04:59:56.659Z,11.33
2018-10-06T05:02:25.485Z,11.20
2018-10-06T05:04:54.348Z,11.83
2018-10-06T05:07:23.225Z,12.13
2018-10-06T05:09:52.031Z,11.30
2018-10-06T05:12:20.912Z,11.30
2018-10-06T05:14:49.741Z,10.63
2018-10-06T05:17:18.547Z,12.07
2018-10-06T05:19:47.420Z,11.30
2018-10-06T05:22:16.274Z,11.13
2018-10-06T05:24:45.155Z,11.70
2018-10-06T05:27:13.999Z,11.73
2018-10-06T05:29:44.747Z,12.90
2018-10-06T05:32:13.489Z,10.97
2018-10-06T05:34:42.364Z,10.90
2018-10-06T05:37:11.583Z,11.47
2018-10-06T05:39:40.421Z,11.47
2018-10-06T05:42:09.296Z,11.03
2018-10-06T05:44:38.462Z,12.07
2018-10-06T05:47:07.451Z,11.47
2018-10-06T05:49:36.606Z,11.77
2018-10-06T05:52:06.198Z,11.60
2018-10-06T05:54:35.012Z,11.70
2018-10-06T05:57:03.891Z,12.07
2018-10-06T05:59:32.732Z,11.80
2018-10-06T06:02:01.571Z,12.13
2018-10-06T06:04:30.384Z,11.90
2018-10-06T06:06:59.617Z,10.83
2018-10-06T06:09:28.398Z,12.17
2018-10-06T06:11:57.252Z,11.80
2018-10-06T06:14:26.050Z,11.87
2018-10-06T06:16:55.070Z,12.30
2018-10-06T06:19:23.900Z,11.37
2018-10-06T06:21:52.876Z,11.67
2018-10-06T06:24:21.782Z,12.27
2018-10-06T06:26:50.746Z,11.73
2018-10-06T06:29:19.615Z,11.60
2018-10-06T06:31:48.860Z,11.97
2018-10-06T06:34:17.882Z,11.93
2018-10-06T06:36:46.801Z,11.10
2018-10-06T06:39:15.797Z,11.60
2018-10-06T06:41:44.909Z,11.37
2018-10-06T06:44:13.939Z,11.83
2018-10-06T06:46:43.428Z,10.87
2018-10-06T06:49:12.303Z,11.00
2018-10-06T06:51:41.199Z,15.67
2018-10-06T06:54:10.016Z,11.63
2018-10-06T06:56:39.007Z,11.17
2018-10-06T06:59:07.962Z,10.77
2018-10-06T07:01:36.896Z,10.93
2018-10-06T07:04:12.367Z,11.47
2018-10-06T07:06:49.667Z,11.40
2018-10-06T07:09:18.721Z,10.83
2018-10-06T07:11:47.633Z,11.00
2018-10-06T07:14:16.711Z,10.40
2018-10-06T07:16:45.689Z,11.07
2018-10-06T07:19:14.551Z,10.87
2018-10-06T07:21:43.509Z,11.00
2018-10-06T07:24:15.522Z,10.63
2018-10-06T07:26:44.380Z,11.77
2018-10-06T07:29:13.315Z,11.63
2018-10-06T07:31:42.155Z,11.07
2018-10-06T07:34:10.976Z,11.40
2018-10-06T07:36:40.003Z,10.47
2018-10-06T07:39:08.963Z,10.37
2018-10-06T07:41:37.972Z,10.87
2018-10-06T07:44:06.767Z,10.70
2018-10-06T07:46:35.638Z,11.10
2018-10-06T07:49:04.489Z,10.70
2018-10-06T07:51:33.397Z,11.40
2018-10-06T07:54:02.254Z,11.33
2018-10-06T07:56:31.210Z,10.90
2018-10-06T07:59:00.066Z,10.77
2018-10-06T08:01:31.353Z,10.43
2018-10-06T08:04:01.142Z,10.63
2018-10-06T08:06:30.061Z,11.10
2018-10-06T08:08:58.799Z,10.33
2018-10-06T08:11:27.705Z,11.07
2018-10-06T08:13:56.517Z,11.30
2018-10-06T08:16:25.714Z,11.23
2018-10-06T08:18:54.580Z,11.37
2018-10-06T08:21:23.435Z,11.63
2018-10-06T08:23:54.866Z,10.27
2018-10-06T08:26:25.077Z,11.80
2018-10-06T08:28:54.484Z,11.33
2018-10-06T08:31:25.708Z,11.93
2018-10-06T08:33:56.572Z,13.50
2018-10-06T08:36:26.009Z,14.23
2018-10-06T08:38:56.566Z,17.07
2018-10-06T08:41:27.399Z,14.40
2018-10-06T08:43:57.604Z,15.57
2018-10-06T08:46:28.080Z,13.40
2018-10-06T08:48:58.886Z,12.40
2018-10-06T08:51:30.502Z,11.47
2018-10-06T08:53:59.417Z,12.43
2018-10-06T08:56:28.272Z,12.40
2018-10-06T08:58:57.289Z,12.67
2018-10-06T09:01:26.187Z,12.47
2018-10-06T09:03:59.387Z,12.10
2018-10-06T09:06:30.847Z,11.30
2018-10-06T09:09:01.152Z,10.37
2018-10-06T09:11:37.512Z,10.37
2018-10-06T09:14:06.459Z,10.33
2018-10-06T09:16:35.415Z,10.70
2018-10-06T09:19:04.847Z,11.00
2018-10-06T09:21:34.902Z,10.43
2018-10-06T09:24:07.922Z,10.40
2018-10-06T09:26:42.715Z,11.10
2018-10-06T09:29:12.555Z,10.17
2018-10-06T09:31:41.924Z,10.10
2018-10-06T09:34:12.769Z,9.73
2018-10-06T09:36:41.842Z,9.93
2018-10-06T09:39:11.759Z,9.50
2018-10-06T09:41:40.635Z,9.13
2018-10-06T09:44:10.592Z,9.43
2018-10-06T09:46:40.117Z,9.03
2018-10-06T09:51:56.798Z,9.23
2018-10-06T09:54:26.046Z,9.87
2018-10-06T09:56:55.438Z,8.90
2018-10-06T09:59:28.067Z,8.97
2018-10-06T10:02:04.045Z,9.17
2018-10-06T10:04:34.781Z,9.63
2018-10-06T10:07:05.071Z,8.60
2018-10-06T10:09:35.485Z,9.23
2018-10-06T10:12:05.479Z,8.90
2018-10-06T10:14:35.232Z,8.90
2018-10-06T10:17:05.815Z,8.70
2018-10-06T10:19:35.218Z,8.67
2018-10-06T10:22:04.485Z,8.63
2018-10-06T10:24:33.987Z,8.40
2018-10-06T10:27:02.923Z,8.60
2018-10-06T10:29:35.859Z,8.73
2018-10-06T10:32:04.815Z,8.17
2018-10-06T10:34:35.613Z,8.70
2018-10-06T10:37:04.883Z,8.10
2018-10-06T10:39:34.394Z,8.67
2018-10-06T10:42:03.887Z,8.50
2018-10-06T10:44:32.790Z,8.80
2018-10-06T10:47:02.255Z,7.93
2018-10-06T10:49:31.629Z,7.57
2018-10-06T10:52:00.978Z,7.70
2018-10-06T10:54:31.044Z,7.43
2018-10-06T10:57:00.023Z,6.43
2018-10-06T10:59:29.186Z,7.10
2018-10-06T11:01:57.882Z,6.90
2018-10-06T11:04:27.219Z,7.20
2018-10-06T11:06:56.606Z,6.67
2018-10-06T11:09:26.024Z,6.60
2018-10-06T11:11:55.136Z,6.40
2018-10-06T11:14:24.424Z,5.03
2018-10-06T11:16:53.208Z,5.07
2018-10-06T11:19:21.972Z,5.43
2018-10-06T11:21:50.864Z,5.30
2018-10-06T11:24:20.018Z,4.83
2018-10-06T11:26:50.357Z,4.87
2018-10-06T11:29:20.287Z,4.90
2018-10-06T11:31:49.151Z,4.20
2018-10-06T11:34:18.017Z,4.53
2018-10-06T11:36:46.865Z,4.90
2018-10-06T11:39:15.700Z,4.90
2018-10-06T11:41:44.547Z,4.57
2018-10-06T11:44:13.342Z,4.90
2018-10-06T11:46:42.247Z,4.50
2018-10-06T11:49:11.147Z,5.40
2018-10-06T11:51:40.181Z,4.90
2018-10-06T11:54:08.985Z,4.63
2018-10-06T11:56:37.842Z,4.27
2018-10-06T11:59:08.709Z,4.47
2018-10-06T12:01:39.065Z,5.37
2018-10-06T12:04:08.431Z,5.00
2018-10-06T12:06:37.177Z,5.57
2018-10-06T12:09:08.983Z,5.60
2018-10-06T12:11:38.282Z,5.00
2018-10-06T12:14:07.758Z,5.13
2018-10-06T12:16:39.678Z,4.20
2018-10-06T12:19:08.475Z,3.57
2018-10-06T12:21:37.628Z,3.03
2018-10-06T12:24:07.805Z,2.70
2018-10-06T12:26:36.691Z,2.83
2018-10-06T12:29:06.803Z,2.60
2018-10-06T12:31:37.832Z,2.57
2018-10-06T12:34:06.726Z,2.60
2018-10-06T12:36:35.507Z,2.90
2018-10-06T12:39:05.529Z,2.87
2018-10-06T12:41:34.319Z,3.60
2018-10-06T12:44:03.336Z,5.10
2018-10-06T12:46:37.791Z,4.40
2018-10-06T12:49:07.721Z,5.00
2018-10-06T12:51:36.525Z,4.40
2018-10-06T12:54:05.133Z,3.93
2018-10-06T12:56:37.099Z,2.67
2018-10-06T12:59:08.194Z,3.00
2018-10-06T13:04:27.416Z,3.00
2018-10-06T13:06:56.057Z,3.10
2018-10-06T13:09:28.775Z,2.53
2018-10-06T13:11:57.462Z,3.03
2018-10-06T13:14:26.796Z,3.00
2018-10-06T13:16:55.415Z,3.00
2018-10-06T13:19:25.253Z,2.97
2018-10-06T13:21:55.504Z,3.10
2018-10-06T13:24:24.386Z,3.10
2018-10-06T13:26:53.423Z,3.23
2018-10-06T13:29:22.230Z,3.10
2018-10-06T13:31:51.486Z,3.80
2018-10-06T13:34:20.312Z,3.93
2018-10-06T13:36:49.834Z,3.80
2018-10-06T13:39:19.737Z,3.90
2018-10-06T13:41:48.695Z,3.80
2018-10-06T13:44:17.979Z,4.00
2018-10-06T13:46:47.946Z,3.77
2018-10-06T13:49:18.084Z,3.60
2018-10-06T13:51:47.710Z,3.73
2018-10-06T13:54:17.726Z,3.60
2018-10-06T13:56:47.019Z,3.43
2018-10-06T13:59:16.546Z,3.20
2018-10-06T14:01:46.539Z,3.10
2018-10-06T14:04:16.461Z,3.03
2018-10-06T14:06:45.860Z,3.47
2018-10-06T14:09:15.210Z,3.07
2018-10-06T14:11:45.067Z,3.17
2018-10-06T14:14:15.548Z,3.37
2018-10-06T14:16:45.115Z,3.00
2018-10-06T14:19:14.311Z,3.50
2018-10-06T14:21:43.815Z,2.70
2018-10-06T14:24:17.789Z,3.83
2018-10-06T14:26:47.240Z,3.23
2018-10-06T14:29:18.530Z,3.10
2018-10-06T14:31:47.475Z,3.17
2018-10-06T14:34:16.506Z,3.10
2018-10-06T14:36:45.619Z,2.97
2018-10-06T14:39:14.853Z,3.20
2018-10-06T14:41:46.034Z,2.97
2018-10-06T14:44:18.551Z,3.30
2018-10-06T14:46:47.646Z,2.90
2018-10-06T14:49:16.394Z,3.20
2018-10-06T14:51:50.784Z,2.90
2018-10-06T14:54:19.549Z,3.23
2018-10-06T14:56:49.376Z,3.40
2018-10-06T14:59:18.322Z,3.50
2018-10-06T15:01:49.044Z,3.30
2018-10-06T15:04:18.047Z,3.47
2018-10-06T15:06:47.500Z,3.50
2018-10-06T15:09:16.379Z,3.80
2018-10-06T15:11:45.654Z,3.50
2018-10-06T15:14:14.620Z,3.10
2018-10-06T15:16:43.835Z,3.60
2018-10-06T15:19:13.105Z,3.60
2018-10-06T15:21:42.020Z,4.30
2018-10-06T15:24:11.207Z,3.97
2018-10-06T15:26:40.323Z,4.40
2018-10-06T15:29:09.411Z,4.17
2018-10-06T15:31:38.386Z,4.40
2018-10-06T15:34:07.364Z,4.40
2018-10-06T15:36:36.285Z,5.27
2018-10-06T15:39:07.100Z,5.00
2018-10-06T15:41:38.068Z,5.77
2018-10-06T15:44:08.122Z,6.37
2018-10-06T15:46:39.863Z,5.83
2018-10-06T15:49:09.770Z,5.27
2018-10-06T15:51:47.473Z,4.97
2018-10-06T15:54:19.846Z,4.47
2018-10-06T15:56:51.472Z,4.70
2018-10-06T15:59:24.044Z,4.80
2018-10-06T16:01:52.861Z,5.53
2018-10-06T16:04:23.933Z,5.10
2018-10-06T16:06:53.670Z,5.07
2018-10-06T16:09:23.475Z,5.37
2018-10-06T16:11:55.567Z,5.53
2018-10-06T16:14:25.958Z,5.43
2018-10-06T16:16:59.158Z,6.27
2018-10-06T16:19:29.477Z,6.63
2018-10-06T16:22:01.604Z,8.37
2018-10-06T16:24:35.637Z,24.13
2018-10-06T16:27:05.082Z,23.47
2018-10-06T16:29:34.457Z,11.53
2018-10-06T16:32:05.792Z,12.27
2018-10-06T16:34:35.503Z,18.17
2018-10-06T16:37:12.860Z,12.53
2018-10-06T16:39:42.034Z,15.20
2018-10-06T16:42:11.293Z,10.63
2018-10-06T16:44:40.700Z,11.80
2018-10-06T16:47:10.342Z,17.70
2018-10-06T16:49:39.235Z,25.03
2018-10-06T16:54:58.585Z,13.17
2018-10-06T16:57:27.499Z,11.97
2018-10-06T16:59:56.507Z,11.37
2018-10-06T17:02:25.371Z,12.40
2018-10-06T17:04:54.355Z,14.00
2018-10-06T17:07:23.376Z,13.57
2018-10-06T17:09:53.038Z,32.30
2018-10-06T17:12:23.640Z,30.77
2018-10-06T17:14:53.245Z,33.57
2018-10-06T17:17:23.401Z,37.70
2018-10-06T17:19:52.368Z,33.50
2018-10-06T17:22:21.700Z,35.30
2018-10-06T17:24:51.025Z,47.60
2018-10-06T17:27:19.892Z,43.53
2018-10-06T17:29:49.031Z,35.67
2018-10-06T17:32:17.963Z,38.13
2018-10-06T17:34:50.271Z,36.80
2018-10-06T17:37:20.184Z,17.43
2018-10-06T17:39:49.486Z,11.80
2018-10-06T17:42:18.967Z,12.00
2018-10-06T17:44:48.383Z,13.40
2018-10-06T17:47:18.037Z,18.47
2018-10-06T17:49:50.068Z,15.50
2018-10-06T17:52:19.207Z,13.50
2018-10-06T17:54:50.291Z,13.63
2018-10-06T17:57:19.193Z,20.30
2018-10-06T17:59:48.006Z,18.53
2018-10-06T18:02:16.910Z,17.27
2018-10-06T18:04:45.938Z,17.87
2018-10-06T18:07:14.763Z,19.10
2018-10-06T18:09:43.752Z,16.83
2018-10-06T18:12:12.854Z,17.70
2018-10-06T18:14:44.548Z,16.17
2018-10-06T18:17:13.642Z,15.97
2018-10-06T18:19:43.267Z,14.67
2018-10-06T18:22:12.339Z,16.67
2018-10-06T18:24:41.498Z,17.20
2018-10-06T18:27:11.071Z,16.40
2018-10-06T18:29:40.168Z,16.17
2018-10-06T18:32:09.083Z,16.10
2018-10-06T18:34:38.408Z,16.00
2018-10-06T18:37:07.267Z,15.53
2018-10-06T18:39:36.406Z,15.10
2018-10-06T18:42:14.167Z,15.67
2018-10-06T18:44:48.119Z,14.40
2018-10-06T18:47:19.264Z,13.60
2018-10-06T18:50:05.495Z,15.60
2018-10-06T18:58:15.247Z,15.10
2018-10-06T19:00:45.078Z,13.93
2018-10-06T19:03:19.928Z,18.60
2018-10-06T19:05:50.736Z,18.47
2018-10-06T19:08:20.289Z,19.63
2018-10-06T19:10:57.714Z,18.10
2018-10-06T19:13:27.888Z,15.73
2018-10-06T19:15:56.745Z,15.53
2018-10-06T19:18:26.893Z,14.10
2018-10-06T19:20:56.404Z,14.87
2018-10-06T19:23:26.148Z,13.63
2018-10-06T19:26:15.307Z,14.47
2018-10-06T19:28:45.622Z,12.73
2018-10-06T19:31:15.023Z,13.63
2018-10-06T19:33:45.129Z,13.90
2018-10-06T19:36:14.740Z,13.77
2018-10-06T19:38:45.608Z,13.00
2018-10-06T19:41:14.673Z,12.50
2018-10-06T19:43:43.507Z,12.70
2018-10-06T19:46:12.436Z,12.27
2018-10-06T19:48:41.436Z,12.97
2018-10-06T19:51:10.250Z,12.93
2018-10-06T19:53:39.344Z,11.67
2018-10-06T19:56:09.976Z,12.10
2018-10-06T19:58:39.200Z,11.53
2018-10-06T20:01:08.058Z,11.13
2018-10-06T20:03:36.886Z,11.97
2018-10-06T20:06:05.744Z,12.17
2018-10-06T20:08:42.266Z,12.00
2018-10-06T20:17:03.210Z,10.03
2018-10-06T20:19:43.427Z,11.23
2018-10-06T20:22:16.862Z,11.13
2018-10-06T20:27:58.708Z,9.60
2018-10-06T20:30:51.625Z,9.93
2018-10-06T20:33:48.715Z,9.43
2018-10-06T20:36:35.030Z,8.30
2018-10-06T20:39:21.298Z,7.77
2018-10-06T20:42:18.612Z,7.97
2018-10-06T20:45:07.518Z,7.23
2018-10-06T20:47:42.504Z,6.73
2018-10-06T20:50:14.073Z,7.00
2018-10-06T20:52:43.041Z,6.50
2018-10-06T20:55:12.818Z,6.07
2018-10-06T20:57:41.665Z,5.70
2018-10-06T21:00:12.404Z,6.50
2018-10-06T21:02:43.181Z,6.37
2018-10-06T21:05:15.224Z,6.40
2018-10-06T21:07:47.680Z,6.60
2018-10-06T21:10:16.601Z,7.07
2018-10-06T21:12:45.504Z,7.60
2018-10-06T21:15:16.251Z,7.20
2018-10-06T21:17:45.313Z,7.20
2018-10-06T21:20:14.807Z,6.93
2018-10-06T21:22:44.339Z,6.73
2018-10-06T21:25:17.638Z,7.00
2018-10-06T21:27:48.675Z,7.20
2018-10-06T21:30:19.103Z,7.27
2018-10-06T21:32:48.359Z,7.20
2018-10-06T21:35:18.060Z,7.23
2018-10-06T21:37:47.979Z,6.90
2018-10-06T21:40:18.959Z,7.07
2018-10-06T21:42:47.814Z,6.70
2018-10-06T21:45:16.648Z,7.10
2018-10-06T21:47:45.427Z,6.50
2018-10-06T21:50:14.208Z,6.77
2018-10-06T21:52:43.046Z,7.27
2018-10-06T21:55:11.881Z,7.53
2018-10-06T21:57:40.603Z,6.83
2018-10-06T22:00:09.540Z,7.20
2018-10-06T22:02:38.382Z,7.50
2018-10-06T22:05:07.795Z,7.70
2018-10-06T22:07:36.950Z,6.93
2018-10-06T22:10:08.847Z,7.13
2018-10-06T22:12:38.039Z,7.70
2018-10-06T22:15:08.163Z,7.30
2018-10-06T22:17:37.087Z,7.27
2018-10-06T22:20:09.413Z,8.10
2018-10-06T22:22:38.391Z,8.30
2018-10-06T22:25:07.831Z,8.77
2018-10-06T22:27:42.428Z,8.57
2018-10-06T22:30:12.728Z,8.70
2018-10-06T22:32:41.946Z,9.33
2018-10-06T22:35:11.043Z,8.90
2018-10-06T22:37:40.227Z,8.70
2018-10-06T22:40:09.541Z,8.50
2018-10-06T22:42:39.471Z,9.73
2018-10-06T22:45:09.429Z,8.40
2018-10-06T22:47:41.543Z,9.43
2018-10-06T22:50:10.572Z,9.37
2018-10-06T22:52:39.902Z,9.70
2018-10-06T22:55:09.031Z,9.53
2018-10-06T22:57:39.555Z,9.20
2018-10-06T23:00:08.417Z,8.87
2018-10-06T23:02:38.571Z,9.20
2018-10-06T23:05:07.392Z,9.63
2018-10-06T23:07:37.597Z,9.33
2018-10-06T23:10:07.038Z,9.30
2018-10-06T23:12:35.854Z,9.17
2018-10-06T23:15:04.763Z,10.53
2018-10-06T23:17:33.675Z,9.57
2018-10-06T23:20:02.648Z,10.00
2018-10-06T23:22:32.533Z,10.50
2018-10-06T23:25:02.355Z,9.73
2018-10-06T23:27:33.328Z,9.67
2018-10-06T23:30:02.261Z,9.83
2018-10-06T23:32:31.169Z,9.43
2018-10-06T23:35:01.011Z,10.40
2018-10-06T23:37:30.101Z,9.90
2018-10-06T23:40:00.834Z,14.93
2018-10-06T23:42:29.705Z,11.10
2018-10-06T23:44:58.580Z,11.10
2018-10-06T23:47:27.382Z,11.37
2018-10-06T23:49:56.418Z,12.03
2018-10-06T23:52:25.268Z,12.87
2018-10-06T23:54:54.158Z,12.13
2018-10-06T23:57:23.038Z,10.97
2018-10-06T23:59:51.836Z,11.37
